Time;durP1;ratioP1;P1;durP2;ratioP2;P2;SDS_P1;SDS_P2;PMS_P1;PMS_P2;Temp;Humidity;BMP_temperature;BMP_pressure;BME280_temperature;BME280_humidity;BME280_pressure;Samples;Min_cycle;Max_cycle;Signal;HPM_P1;HPM_P2
2021/07/22 00:01:01;;;;;;;10.90;9.77;;;20.30;89.00;;;;;;6200767;23;20425;-82
2021/07/22 00:03:27;;;;;;;10.47;9.37;;;20.20;88.80;;;;;;6211009;23;20415;-83
2021/07/22 00:05:54;;;;;;;12.50;11.30;;;20.20;89.30;;;;;;6200671;23;20402;-84
2021/07/22 00:08:22;;;;;;;11.80;10.50;;;20.20;89.70;;;;;;6200898;23;20409;-84
2021/07/22 00:10:49;;;;;;;11.73;10.57;;;20.20;89.90;;;;;;6199268;23;20423;-83
2021/07/22 00:13:15;;;;;;;11.47;10.40;;;20.20;90.00;;;;;;6199376;23;21124;-84
2021/07/22 00:15:42;;;;;;;11.40;10.10;;;20.10;90.10;;;;;;6200433;23;20403;-82
2021/07/22 00:18:09;;;;;;;10.67;9.53;;;20.10;90.30;;;;;;6205311;23;20411;-83
2021/07/22 00:20:35;;;;;;;10.60;9.63;;;20.00;90.50;;;;;;6200756;23;20437;-83
2021/07/22 00:23:02;;;;;;;10.83;9.73;;;19.90;90.80;;;;;;6198238;23;20922;-83
2021/07/22 00:25:30;;;;;;;12.47;9.93;;;19.90;91.20;;;;;;6197692;23;20860;-83
2021/07/22 00:27:57;;;;;;;11.03;9.93;;;19.90;91.50;;;;;;6197408;23;20443;-83
2021/07/22 00:30:24;;;;;;;11.67;10.17;;;19.80;91.60;;;;;;6198431;23;20438;-83
2021/07/22 00:32:50;;;;;;;11.70;10.50;;;19.80;91.80;;;;;;6197035;23;20420;-81
2021/07/22 00:35:17;;;;;;;15.00;11.17;;;19.90;92.00;;;;;;6197933;23;20408;-84
2021/07/22 00:37:44;;;;;;;13.83;12.30;;;19.80;92.30;;;;;;6204951;23;20781;-83
2021/07/22 00:40:11;;;;;;;11.80;10.60;;;19.80;92.40;;;;;;6203134;23;20446;-84
2021/07/22 00:43:02;;;;;;;11.90;10.53;;;19.80;92.70;;;;;;6200973;23;20407;-83
2021/07/22 00:45:29;;;;;;;11.40;10.10;;;19.80;93.10;;;;;;6198715;23;20411;-83
2021/07/22 00:47:58;;;;;;;17.30;11.10;;;19.70;93.20;;;;;;6198714;23;20423;-83
2021/07/22 00:50:25;;;;;;;16.40;11.30;;;19.70;93.40;;;;;;6200425;23;20452;-83
2021/07/22 00:52:52;;;;;;;13.67;9.50;;;19.70;93.70;;;;;;6196775;23;20408;-83
2021/07/22 00:55:20;;;;;;;13.10;11.03;;;19.70;94.00;;;;;;6198069;23;20406;-83
2021/07/22 00:57:46;;;;;;;11.60;10.50;;;19.60;94.40;;;;;;6198814;23;20410;-84
2021/07/22 01:00:15;;;;;;;11.77;10.57;;;19.50;94.70;;;;;;6199420;23;20425;-84
2021/07/22 01:02:42;;;;;;;13.47;12.17;;;19.50;95.10;;;;;;6199151;23;20814;-84
2021/07/22 01:05:09;;;;;;;11.67;10.47;;;19.40;95.40;;;;;;6208464;23;20415;-82
2021/07/22 01:07:37;;;;;;;12.03;10.50;;;19.40;95.70;;;;;;6202331;23;20457;-84
2021/07/22 01:10:04;;;;;;;12.97;11.67;;;19.40;95.80;;;;;;6199001;23;20430;-83
2021/07/22 01:12:31;;;;;;;10.50;9.53;;;19.30;96.00;;;;;;6198419;23;20399;-84
2021/07/22 01:14:58;;;;;;;10.73;9.63;;;19.40;96.30;;;;;;6198813;23;20515;-84
2021/07/22 01:17:36;;;;;;;11.70;10.60;;;19.30;96.50;;;;;;6199096;23;20457;-83
2021/07/22 01:20:03;;;;;;;12.43;11.13;;;19.20;97.60;;;;;;6198397;23;20444;-84
2021/07/22 01:22:32;;;;;;;13.50;12.10;;;19.10;97.80;;;;;;6199941;23;20390;-82
2021/07/22 01:24:59;;;;;;;11.87;10.70;;;19.10;98.00;;;;;;6207581;23;20419;-81
2021/07/22 01:27:25;;;;;;;10.93;9.20;;;19.20;98.20;;;;;;6209766;23;20406;-81
2021/07/22 01:29:52;;;;;;;12.90;11.60;;;19.20;98.30;;;;;;6204067;23;20489;-82
2021/07/22 01:32:19;;;;;;;11.60;10.43;;;19.10;98.50;;;;;;6208912;23;20417;-83
2021/07/22 01:34:45;;;;;;;13.23;11.03;;;19.10;98.90;;;;;;6201666;23;20441;-83
2021/07/22 01:37:12;;;;;;;11.90;10.70;;;19.10;99.10;;;;;;6201839;23;20437;-83
2021/07/22 01:39:40;;;;;;;12.63;10.60;;;19.00;99.50;;;;;;6199445;23;20432;-83
2021/07/22 01:42:07;;;;;;;12.57;11.27;;;19.00;99.90;;;;;;6199163;23;20429;-83
2021/07/22 01:44:34;;;;;;;11.37;10.23;;;18.90;99.90;;;;;;6199201;23;20398;-82
2021/07/22 01:47:00;;;;;;;11.70;10.60;;;18.80;99.90;;;;;;6202674;23;20401;-82
2021/07/22 01:49:27;;;;;;;13.00;10.20;;;18.80;99.90;;;;;;6202612;23;20402;-84
2021/07/22 01:51:53;;;;;;;12.77;11.47;;;18.90;99.90;;;;;;6200431;23;20407;-83
2021/07/22 01:54:20;;;;;;;13.10;11.17;;;18.80;99.90;;;;;;6211055;23;20440;-83
2021/07/22 01:56:48;;;;;;;12.60;11.03;;;18.80;99.90;;;;;;6201666;23;20403;-84
2021/07/22 01:59:16;;;;;;;14.73;12.73;;;18.70;99.90;;;;;;6201279;23;20422;-83
2021/07/22 02:01:43;;;;;;;11.87;10.67;;;18.70;99.90;;;;;;6206787;23;20433;-82
2021/07/22 02:04:10;;;;;;;11.80;10.50;;;18.70;99.90;;;;;;6203041;23;20880;-82
2021/07/22 02:06:36;;;;;;;11.50;10.47;;;18.70;99.90;;;;;;6193692;23;20415;-81
2021/07/22 02:09:03;;;;;;;13.20;10.97;;;18.60;99.90;;;;;;6207445;23;20398;-81
2021/07/22 02:11:30;;;;;;;11.70;10.50;;;18.60;99.90;;;;;;6200374;23;20426;-84
2021/07/22 02:13:58;;;;;;;14.70;11.57;;;18.60;99.90;;;;;;6197984;23;20445;-84
2021/07/22 02:16:24;;;;;;;13.23;11.60;;;18.50;99.90;;;;;;6198912;23;20411;-84
2021/07/22 02:18:51;;;;;;;19.63;11.10;;;18.50;99.90;;;;;;6198836;23;20413;-84
2021/07/22 02:21:18;;;;;;;12.77;11.17;;;18.50;99.90;;;;;;6202996;23;20507;-83
2021/07/22 02:23:44;;;;;;;12.00;10.80;;;18.50;99.90;;;;;;6207709;23;20471;-84
2021/07/22 02:26:11;;;;;;;13.80;11.40;;;18.50;99.90;;;;;;6199139;23;20410;-84
2021/07/22 02:28:38;;;;;;;13.57;11.23;;;18.40;99.90;;;;;;6196900;23;20403;-84
2021/07/22 02:31:33;;;;;;;11.93;10.73;;;18.50;99.90;;;;;;6186243;23;20465;-81
2021/07/22 02:37:34;;;;;;;12.37;10.80;;;18.30;99.90;;;;;;6099452;23;20388;-82
2021/07/22 02:40:15;;;;;;;12.80;11.17;;;18.20;99.90;;;;;;6098995;23;20408;-83
2021/07/22 02:42:55;;;;;;;15.60;10.50;;;18.20;99.90;;;;;;6100247;23;20440;-83
2021/07/22 02:45:58;;;;;;;13.47;11.47;;;18.30;99.90;;;;;;6099641;23;20399;-83
2021/07/22 02:48:33;;;;;;;14.23;10.97;;;18.20;99.90;;;;;;6172651;23;20400;-82
2021/07/22 02:51:16;;;;;;;14.00;11.27;;;18.30;99.90;;;;;;6201176;23;20449;-82
2021/07/22 02:53:53;;;;;;;12.53;11.23;;;18.30;99.90;;;;;;6211915;23;20426;-83
2021/07/22 02:56:23;;;;;;;14.60;12.20;;;18.20;99.90;;;;;;6214609;23;20374;-82
2021/07/22 02:58:53;;;;;;;17.20;12.17;;;18.10;99.90;;;;;;6214732;23;20400;-81
2021/07/22 03:01:20;;;;;;;11.73;10.67;;;18.10;99.90;;;;;;6214113;23;20422;-81
2021/07/22 03:04:05;;;;;;;12.83;10.43;;;18.10;99.90;;;;;;6195179;23;20417;-82
2021/07/22 03:09:53;;;;;;;12.27;11.17;;;18.10;99.90;;;;;;6211318;23;20461;-82
2021/07/22 03:12:37;;;;;;;13.40;12.10;;;18.00;99.90;;;;;;6212148;23;20418;-82
2021/07/22 03:15:16;;;;;;;13.03;11.80;;;18.00;99.90;;;;;;6210402;23;20434;-82
2021/07/22 03:17:46;;;;;;;13.20;11.90;;;18.00;99.90;;;;;;6191417;23;20371;-82
2021/07/22 03:20:21;;;;;;;12.33;11.23;;;17.90;99.90;;;;;;6190595;23;20438;-82
2021/07/22 03:22:57;;;;;;;12.67;11.37;;;17.90;99.90;;;;;;6191018;23;20917;-83
2021/07/22 03:25:26;;;;;;;13.47;12.07;;;17.90;99.90;;;;;;6192754;23;20413;-82
2021/07/22 03:27:57;;;;;;;18.80;12.70;;;17.90;99.90;;;;;;6195823;23;20441;-82
2021/07/22 03:30:24;;;;;;;12.87;11.67;;;17.80;99.90;;;;;;6192257;23;20437;-83
2021/07/22 03:33:04;;;;;;;12.90;11.40;;;17.90;99.90;;;;;;6192175;23;20401;-82
2021/07/22 03:35:45;;;;;;;15.87;12.00;;;17.80;99.90;;;;;;6193696;23;20447;-83
2021/07/22 03:38:15;;;;;;;13.07;11.67;;;17.60;99.90;;;;;;6198709;23;20491;-83
2021/07/22 03:40:51;;;;;;;13.50;11.57;;;17.50;99.90;;;;;;6200067;23;20428;-82
2021/07/22 03:43:19;;;;;;;13.83;12.40;;;17.60;99.90;;;;;;6199214;23;20420;-82
2021/07/22 03:45:56;;;;;;;13.47;12.07;;;17.70;99.90;;;;;;6194473;23;20414;-82
2021/07/22 03:48:24;;;;;;;12.63;11.33;;;17.60;99.90;;;;;;6192264;23;20405;-82
2021/07/22 03:51:13;;;;;;;14.40;11.47;;;17.50;99.90;;;;;;6195327;23;20460;-82
2021/07/22 03:53:48;;;;;;;13.30;11.90;;;17.50;99.90;;;;;;6197002;23;20410;-83
2021/07/22 03:56:22;;;;;;;14.13;11.37;;;17.60;99.90;;;;;;6195980;23;20394;-82
2021/07/22 03:59:19;;;;;;;14.07;12.50;;;17.50;99.90;;;;;;6188713;23;20413;-83
2021/07/22 04:01:59;;;;;;;13.57;11.70;;;17.60;99.90;;;;;;6188335;23;20434;-82
2021/07/22 04:04:30;;;;;;;16.50;12.03;;;17.70;99.90;;;;;;6191622;23;20386;-82
2021/07/22 04:07:08;;;;;;;15.20;12.40;;;17.80;99.90;;;;;;6191025;23;20378;-83
2021/07/22 04:09:38;;;;;;;16.40;12.70;;;17.90;99.90;;;;;;6198589;23;20405;-83
2021/07/22 04:56:24;;;;;;;20.17;16.50;;;18.10;99.90;;;;;;6182885;23;20466;-90
2021/07/22 04:59:10;;;;;;;20.10;15.93;;;18.10;99.90;;;;;;6189428;23;20425;-90
2021/07/22 05:05:12;;;;;;;26.27;17.03;;;18.20;99.90;;;;;;6128019;23;20439;-89
2021/07/22 05:07:41;;;;;;;28.37;18.43;;;18.30;99.90;;;;;;6127923;23;20380;-90
2021/07/22 05:10:14;;;;;;;19.53;17.50;;;18.30;99.90;;;;;;6182877;23;21831;-89
2021/07/22 05:12:41;;;;;;;22.37;18.77;;;18.40;99.90;;;;;;6189040;23;20381;-89
2021/07/22 05:15:10;;;;;;;19.83;17.53;;;18.40;99.90;;;;;;6188907;23;20449;-90
2021/07/22 05:17:47;;;;;;;18.97;16.97;;;18.40;99.90;;;;;;6190494;23;20498;-88
2021/07/22 05:20:13;;;;;;;17.40;15.57;;;18.60;99.90;;;;;;6187810;23;20582;-90
2021/07/22 05:22:44;;;;;;;20.60;16.10;;;18.70;99.90;;;;;;6200456;23;20382;-90
2021/07/22 05:25:15;;;;;;;21.37;17.90;;;19.10;99.90;;;;;;6192110;23;20395;-89
2021/07/22 05:27:42;;;;;;;20.90;18.70;;;19.50;99.90;;;;;;6193070;23;20418;-89
2021/07/22 05:30:16;;;;;;;19.87;17.70;;;20.00;99.90;;;;;;6192298;23;20411;-89
2021/07/22 05:32:47;;;;;;;23.87;20.00;;;20.40;99.90;;;;;;6190217;23;20546;-89
2021/07/22 05:35:31;;;;;;;20.67;18.50;;;20.70;99.90;;;;;;6189411;23;20421;-90
2021/07/22 05:37:59;;;;;;;21.87;18.23;;;21.20;99.40;;;;;;6200153;23;20426;-88
2021/07/22 05:40:26;;;;;;;19.70;16.63;;;21.70;97.50;;;;;;6212169;23;20421;-88
2021/07/22 05:43:04;;;;;;;21.93;19.60;;;22.20;96.00;;;;;;6209960;23;20398;-88
2021/07/22 05:45:33;;;;;;;20.60;18.40;;;22.60;95.10;;;;;;6195215;23;20883;-90
2021/07/22 05:48:07;;;;;;;21.00;18.67;;;22.70;94.30;;;;;;6202004;23;20479;-88
2021/07/22 05:50:36;;;;;;;21.07;18.57;;;22.90;93.60;;;;;;6211002;23;20405;-88
2021/07/22 05:53:09;;;;;;;25.83;18.93;;;23.10;93.50;;;;;;6210964;23;20424;-87
2021/07/22 05:55:42;;;;;;;23.10;17.87;;;23.10;92.70;;;;;;6211308;23;20461;-88
2021/07/22 05:58:21;;;;;;;20.50;17.87;;;23.00;92.70;;;;;;6210699;23;20398;-87
2021/07/22 06:00:48;;;;;;;18.70;16.80;;;23.30;92.60;;;;;;6211053;23;20462;-87
2021/07/22 06:03:15;;;;;;;19.93;17.97;;;23.50;91.70;;;;;;6208529;23;20406;-89
2021/07/22 06:05:43;;;;;;;19.37;17.47;;;23.80;91.30;;;;;;6210862;23;20437;-88
2021/07/22 06:08:14;;;;;;;19.37;17.43;;;24.20;90.60;;;;;;6210998;23;20389;-88
2021/07/22 06:10:43;;;;;;;19.40;17.13;;;24.30;89.40;;;;;;6210814;23;20435;-89
2021/07/22 06:13:11;;;;;;;15.77;14.23;;;24.50;89.00;;;;;;6209367;23;20409;-89
2021/07/22 06:15:48;;;;;;;19.90;16.77;;;24.90;87.10;;;;;;6196891;23;20426;-88
2021/07/22 06:18:22;;;;;;;19.37;17.37;;;25.00;84.80;;;;;;6206320;23;20480;-89
2021/07/22 06:20:49;;;;;;;21.00;18.47;;;25.10;84.80;;;;;;6201475;23;20445;-89
2021/07/22 06:23:17;;;;;;;19.07;16.73;;;24.90;83.80;;;;;;6198056;23;20483;-90
2021/07/22 06:25:44;;;;;;;21.27;16.20;;;24.40;84.60;;;;;;6189644;23;20396;-89
2021/07/22 06:29:09;;;;;;;19.63;16.60;;;24.10;86.10;;;;;;6194473;23;20889;-90
2021/07/22 06:31:47;;;;;;;18.90;16.93;;;24.40;85.80;;;;;;6129358;23;20438;-90
2021/07/22 06:34:18;;;;;;;18.80;16.80;;;25.00;83.70;;;;;;6133438;23;20412;-87
2021/07/22 06:36:50;;;;;;;18.17;16.30;;;25.70;81.40;;;;;;6151529;23;20443;-87
2021/07/22 06:39:31;;;;;;;17.00;15.30;;;25.90;79.90;;;;;;6149181;23;20431;-90
2021/07/22 06:42:01;;;;;;;18.40;16.43;;;26.00;80.00;;;;;;6196510;23;20466;-90
2021/07/22 06:44:31;;;;;;;17.30;15.70;;;26.80;76.80;;;;;;6203604;23;20393;-90
2021/07/22 06:47:12;;;;;;;17.53;15.73;;;27.30;74.70;;;;;;6205157;23;20395;-89
2021/07/22 06:49:51;;;;;;;16.50;14.80;;;27.70;72.20;;;;;;6208903;23;20415;-89
2021/07/22 06:52:20;;;;;;;15.33;13.40;;;27.80;71.00;;;;;;6192511;23;20406;-89
2021/07/22 06:54:51;;;;;;;22.80;17.40;;;28.00;69.70;;;;;;6191462;23;20448;-89
2021/07/22 06:57:36;;;;;;;16.87;15.43;;;28.20;69.00;;;;;;6205677;23;20441;-90
2021/07/22 07:00:25;;;;;;;16.83;15.13;;;27.80;68.90;;;;;;6192574;23;20408;-90
2021/07/22 07:03:21;;;;;;;15.97;14.47;;;26.90;72.00;;;;;;6193506;23;20410;-90
2021/07/22 07:06:00;;;;;;;;;;;;;;;;;;;;;
2021/07/22 07:08:35;;;;;;;15.23;13.77;;;26.30;76.10;;;;;;6191564;23;20389;-90
2021/07/22 07:11:31;;;;;;;17.60;16.00;;;27.10;73.10;;;;;;6191386;23;20445;-90
2021/07/22 07:14:01;;;;;;;19.33;14.33;;;28.00;70.10;;;;;;6174390;23;20413;-91
2021/07/22 07:16:28;;;;;;;15.63;14.33;;;28.90;67.20;;;;;;6189645;23;20601;-92
2021/07/22 07:18:55;;;;;;;13.90;12.53;;;29.40;64.40;;;;;;6190920;23;20391;-90
2021/07/22 07:21:24;;;;;;;14.63;13.27;;;30.10;62.60;;;;;;6189642;23;20452;-91
2021/07/22 07:24:12;;;;;;;14.77;13.37;;;29.40;61.90;;;;;;6189798;23;20445;-90
2021/07/22 07:26:42;;;;;;;14.10;12.67;;;29.40;63.60;;;;;;6190019;23;20406;-90
2021/07/22 07:29:12;;;;;;;14.20;12.03;;;29.60;62.20;;;;;;6191273;23;20865;-91
2021/07/22 07:35:30;;;;;;;;;;;;;;;;;;;;;
2021/07/22 07:41:10;;;;;;;12.40;11.27;;;27.60;65.10;;;;;;6102357;23;20445;-91
2021/07/22 07:43:55;;;;;;;13.33;10.00;;;27.30;65.80;;;;;;6178929;23;20811;-88
2021/07/22 07:46:29;;;;;;;13.57;12.23;;;27.50;66.10;;;;;;6190948;23;20411;-91
2021/07/22 07:48:58;;;;;;;12.07;10.97;;;27.70;65.40;;;;;;6191358;23;20398;-90
2021/07/22 07:51:42;;;;;;;12.20;11.10;;;27.30;66.90;;;;;;6191371;23;20433;-90
2021/07/22 07:54:36;;;;;;;13.23;11.43;;;28.40;65.60;;;;;;6190616;23;20737;-91
2021/07/22 08:03:30;;;;;;;12.20;11.20;;;32.80;54.90;;;;;;6144992;23;20396;-90
2021/07/22 08:09:21;;;;;;;12.07;10.90;;;33.40;52.40;;;;;;6059700;23;20831;-92
2021/07/22 08:15:11;;;;;;;;;;;;;;;;;;;;;
2021/07/22 08:17:48;;;;;;;9.50;8.70;;;35.30;47.50;;;;;;6097214;23;20416;-83
2021/07/22 08:20:16;;;;;;;11.87;10.77;;;35.40;47.60;;;;;;6130744;23;20475;-83
2021/07/22 08:29:23;;;;;;;10.97;10.07;;;35.70;46.30;;;;;;6068067;23;20513;-91
2021/07/22 08:32:04;;;;;;;11.73;10.73;;;36.70;45.30;;;;;;6126984;23;20898;-92
2021/07/22 08:34:32;;;;;;;11.90;10.70;;;37.10;43.50;;;;;;6185401;23;20501;-83
2021/07/22 08:37:05;;;;;;;11.23;10.23;;;37.10;43.30;;;;;;6198240;23;20517;-84
2021/07/22 08:39:37;;;;;;;10.77;9.83;;;37.50;43.10;;;;;;6188481;23;20401;-84
2021/07/22 08:42:05;;;;;;;11.13;10.00;;;38.10;42.00;;;;;;6188193;23;20402;-84
2021/07/22 08:44:32;;;;;;;10.50;9.70;;;38.10;40.80;;;;;;6186681;23;20493;-84
2021/07/22 08:47:01;;;;;;;10.97;9.97;;;38.50;41.00;;;;;;6186425;23;20413;-84
2021/07/22 08:49:28;;;;;;;11.93;9.80;;;38.80;40.00;;;;;;6185770;23;20410;-83
2021/07/22 08:51:59;;;;;;;10.10;9.20;;;39.50;39.40;;;;;;6211149;23;20398;-84
2021/07/22 08:54:26;;;;;;;10.60;9.60;;;39.20;37.10;;;;;;6198172;23;20393;-84
2021/07/22 08:56:57;;;;;;;9.50;8.70;;;38.60;38.00;;;;;;6185294;23;20472;-84
2021/07/22 08:59:26;;;;;;;9.33;8.20;;;38.40;37.80;;;;;;6185844;23;20406;-84
2021/07/22 09:01:53;;;;;;;9.60;8.80;;;38.50;39.30;;;;;;6185596;23;20888;-84
2021/07/22 09:04:19;;;;;;;9.93;9.03;;;39.50;37.80;;;;;;6185472;23;20920;-84
2021/07/22 09:06:46;;;;;;;8.97;8.17;;;40.00;37.10;;;;;;6184895;23;20749;-84
2021/07/22 09:09:16;;;;;;;9.33;8.57;;;40.80;36.10;;;;;;6185853;23;20401;-82
2021/07/22 09:11:58;;;;;;;9.70;8.90;;;40.80;35.00;;;;;;6186059;23;20880;-83
2021/07/22 09:14:27;;;;;;;8.23;7.53;;;40.10;36.00;;;;;;6188220;23;20409;-84
2021/07/22 09:16:54;;;;;;;9.37;8.40;;;39.90;35.50;;;;;;6184648;23;20472;-84
2021/07/22 09:19:37;;;;;;;10.27;9.27;;;39.80;35.90;;;;;;6185444;23;20417;-84
2021/07/22 09:22:05;;;;;;;8.93;8.10;;;38.40;36.40;;;;;;6185476;23;20460;-83
2021/07/22 09:24:48;;;;;;;11.50;8.80;;;38.10;37.70;;;;;;6185053;23;20422;-83
2021/07/22 09:27:33;;;;;;;8.80;8.10;;;39.10;37.10;;;;;;6186489;23;20416;-83
2021/07/22 09:30:02;;;;;;;9.30;8.60;;;39.30;36.50;;;;;;6196789;23;20857;-83
2021/07/22 09:32:32;;;;;;;9.10;8.30;;;39.80;34.90;;;;;;6197947;23;20406;-84
2021/07/22 09:35:10;;;;;;;9.20;8.33;;;41.20;34.00;;;;;;6187239;23;20460;-84
2021/07/22 09:37:39;;;;;;;11.83;8.87;;;41.70;33.30;;;;;;6187867;23;20779;-83
2021/07/22 09:40:09;;;;;;;8.70;8.10;;;41.20;33.50;;;;;;6186601;23;20413;-83
2021/07/22 09:42:43;;;;;;;9.27;8.47;;;40.30;34.40;;;;;;6185581;23;20394;-83
2021/07/22 09:45:15;;;;;;;9.27;8.47;;;40.20;34.20;;;;;;6185220;23;20433;-83
2021/07/22 09:47:42;;;;;;;9.37;8.57;;;40.50;33.30;;;;;;6184949;23;20398;-83
2021/07/22 09:50:12;;;;;;;8.97;8.27;;;39.90;34.40;;;;;;6185562;23;20407;-83
2021/07/22 09:52:39;;;;;;;8.67;8.03;;;39.50;34.10;;;;;;6184616;23;20901;-84
2021/07/22 09:55:24;;;;;;;8.97;8.27;;;39.50;33.90;;;;;;6185543;23;20426;-83
2021/07/22 09:57:54;;;;;;;9.47;8.63;;;39.40;34.50;;;;;;6185680;23;20412;-84
2021/07/22 10:00:21;;;;;;;8.07;7.27;;;40.30;34.70;;;;;;6202939;23;20382;-84
2021/07/22 10:02:50;;;;;;;7.97;7.33;;;41.30;33.10;;;;;;6198930;23;20409;-84
2021/07/22 10:05:18;;;;;;;8.33;7.73;;;42.30;31.90;;;;;;6185848;23;20425;-84
2021/07/22 10:07:46;;;;;;;8.33;7.70;;;43.40;30.50;;;;;;6185745;23;20393;-83
2021/07/22 10:10:16;;;;;;;8.83;8.10;;;43.50;29.70;;;;;;6185513;23;20425;-84
2021/07/22 10:12:49;;;;;;;9.10;8.40;;;43.40;29.50;;;;;;6185619;23;20692;-83
2021/07/22 10:15:16;;;;;;;9.23;8.27;;;43.00;29.70;;;;;;6204638;23;20422;-83
2021/07/22 10:17:46;;;;;;;9.00;8.20;;;42.50;30.80;;;;;;6198998;23;20831;-84
2021/07/22 10:20:13;;;;;;;8.70;8.00;;;42.80;30.30;;;;;;6193179;23;20416;-84
2021/07/22 10:22:43;;;;;;;8.40;7.70;;;43.00;30.10;;;;;;6185312;23;20932;-84
2021/07/22 10:25:12;;;;;;;7.90;7.27;;;43.40;29.30;;;;;;6185767;23;20429;-83
2021/07/22 10:27:43;;;;;;;7.83;7.23;;;43.40;29.60;;;;;;6185826;23;20406;-84
2021/07/22 10:30:12;;;;;;;8.30;7.67;;;44.00;29.10;;;;;;6184821;23;20405;-86
2021/07/22 10:32:41;;;;;;;8.40;7.60;;;43.50;29.10;;;;;;6185621;23;20789;-86
2021/07/22 10:35:09;;;;;;;8.40;7.80;;;43.90;29.00;;;;;;6185207;23;20491;-86
2021/07/22 10:37:36;;;;;;;7.20;6.60;;;43.80;29.00;;;;;;6185966;23;20456;-87
2021/07/22 10:40:08;;;;;;;11.90;7.80;;;44.70;28.60;;;;;;6187322;23;20414;-84
2021/07/22 10:42:47;;;;;;;8.03;7.27;;;44.60;28.30;;;;;;6186457;23;20405;-84
2021/07/22 10:45:27;;;;;;;8.40;7.80;;;44.60;28.60;;;;;;6185553;23;20970;-87
2021/07/22 10:48:06;;;;;;;7.97;7.27;;;44.70;28.20;;;;;;6186290;23;20413;-87
2021/07/22 10:51:06;;;;;;;7.33;6.63;;;44.90;28.20;;;;;;6203809;23;20402;-88
2021/07/22 10:53:51;;;;;;;8.20;7.50;;;45.10;28.00;;;;;;6188660;23;20963;-86
2021/07/22 10:56:53;;;;;;;7.70;7.10;;;45.40;27.70;;;;;;6203344;23;20462;-88
2021/07/22 10:59:56;;;;;;;8.77;7.97;;;45.10;28.00;;;;;;6162690;23;20464;-81
2021/07/22 11:02:44;;;;;;;10.07;9.10;;;46.00;27.00;;;;;;6192566;23;20409;-84
2021/07/22 11:05:12;;;;;;;8.57;7.87;;;46.10;26.70;;;;;;6180191;23;20508;-84
2021/07/22 11:07:39;;;;;;;9.13;8.43;;;45.30;26.80;;;;;;6187957;23;20402;-85
2021/07/22 11:10:06;;;;;;;8.03;7.53;;;44.80;27.50;;;;;;6187259;23;20409;-84
2021/07/22 11:12:52;;;;;;;7.30;6.80;;;45.40;27.50;;;;;;6186172;23;20397;-84
2021/07/22 11:16:02;;;;;;;7.80;7.20;;;45.20;27.40;;;;;;6187314;23;21020;-83
2021/07/22 11:19:05;;;;;;;8.27;7.67;;;45.40;27.60;;;;;;6186367;23;20398;-84
2021/07/22 11:21:34;;;;;;;9.10;8.40;;;45.70;27.10;;;;;;6185125;23;20410;-84
2021/07/22 11:24:04;;;;;;;8.50;7.80;;;45.70;26.80;;;;;;6192357;23;20405;-83
2021/07/22 11:26:32;;;;;;;9.13;7.83;;;45.40;27.00;;;;;;6206915;23;20414;-84
2021/07/22 11:29:01;;;;;;;7.87;7.27;;;45.60;27.30;;;;;;6189993;23;20427;-84
2021/07/22 11:31:30;;;;;;;8.27;7.47;;;46.20;27.10;;;;;;6188323;23;20386;-84
2021/07/22 11:34:01;;;;;;;8.30;7.70;;;46.80;26.20;;;;;;6188639;23;20406;-84
2021/07/22 11:36:28;;;;;;;8.80;8.00;;;46.60;26.50;;;;;;6187407;23;20456;-84
2021/07/22 11:38:56;;;;;;;8.30;7.67;;;45.90;26.10;;;;;;6187368;23;20406;-86
2021/07/22 11:41:23;;;;;;;9.00;8.40;;;44.70;27.40;;;;;;6197337;23;20409;-86
2021/07/22 11:43:54;;;;;;;8.57;7.80;;;44.90;27.40;;;;;;6208118;23;20434;-86
2021/07/22 11:46:36;;;;;;;10.00;9.20;;;44.60;27.30;;;;;;6207408;23;20417;-85
2021/07/22 11:49:06;;;;;;;9.70;8.80;;;44.30;28.20;;;;;;6187173;23;20775;-86
2021/07/22 11:51:33;;;;;;;8.97;8.07;;;44.40;27.70;;;;;;6186817;23;20881;-84
2021/07/22 11:54:02;;;;;;;8.67;8.00;;;44.90;27.40;;;;;;6187018;23;20440;-84
2021/07/22 11:56:32;;;;;;;9.63;8.70;;;45.20;26.70;;;;;;6188155;23;20450;-86
2021/07/22 11:58:59;;;;;;;10.20;9.20;;;45.70;26.80;;;;;;6187260;23;20406;-86
2021/07/22 12:01:25;;;;;;;8.53;7.90;;;46.00;26.50;;;;;;6187057;23;20390;-86
2021/07/22 12:03:52;;;;;;;9.23;8.50;;;46.10;26.10;;;;;;6186106;23;20415;-86
2021/07/22 12:06:23;;;;;;;10.03;8.27;;;46.40;25.80;;;;;;6186745;23;20483;-86
2021/07/22 12:09:03;;;;;;;9.03;8.20;;;45.70;26.20;;;;;;6186848;23;20409;-86
2021/07/22 12:11:30;;;;;;;9.43;8.73;;;45.30;26.50;;;;;;6184735;23;20401;-83
2021/07/22 12:13:57;;;;;;;9.03;8.33;;;46.20;26.50;;;;;;6185454;23;20947;-84
2021/07/22 12:16:25;;;;;;;10.10;9.30;;;45.40;26.30;;;;;;6185981;23;20421;-84
2021/07/22 12:18:53;;;;;;;10.20;9.50;;;44.70;27.10;;;;;;6185802;23;20925;-83
2021/07/22 12:21:22;;;;;;;9.70;8.77;;;45.10;26.90;;;;;;6188809;23;20402;-84
2021/07/22 12:23:49;;;;;;;9.80;8.90;;;45.50;27.20;;;;;;6199769;23;20406;-83
2021/07/22 12:26:18;;;;;;;8.80;8.10;;;45.20;27.10;;;;;;6187033;23;20952;-84
2021/07/22 12:28:46;;;;;;;10.20;9.50;;;45.10;27.10;;;;;;6185555;23;20410;-84
2021/07/22 12:31:17;;;;;;;9.70;9.00;;;45.70;26.80;;;;;;6186704;23;20476;-84
2021/07/22 12:33:44;;;;;;;10.47;9.60;;;46.10;25.90;;;;;;6186182;23;20406;-84
2021/07/22 12:36:21;;;;;;;10.97;10.07;;;45.70;26.30;;;;;;6194193;23;20429;-82
2021/07/22 12:39:18;;;;;;;9.90;9.20;;;46.10;26.20;;;;;;6206539;23;20413;-83
2021/07/22 12:41:48;;;;;;;9.77;8.87;;;46.20;25.50;;;;;;6194119;23;20433;-83
2021/07/22 12:44:40;;;;;;;10.60;9.70;;;44.60;26.30;;;;;;6160391;23;20725;-82
2021/07/22 12:47:25;;;;;;;10.53;9.70;;;43.00;28.00;;;;;;6188128;23;20387;-84
2021/07/22 12:49:52;;;;;;;10.63;9.83;;;43.20;28.10;;;;;;6189715;23;20390;-84
2021/07/22 12:52:18;;;;;;;11.37;10.37;;;44.40;27.50;;;;;;6187429;23;20409;-83
2021/07/22 12:54:46;;;;;;;11.27;10.20;;;44.60;27.20;;;;;;6186932;23;20736;-83
2021/07/22 12:57:14;;;;;;;11.03;10.13;;;45.00;26.80;;;;;;6186928;23;20446;-84
2021/07/22 12:59:41;;;;;;;9.90;8.90;;;45.20;26.80;;;;;;6187822;23;20456;-84
2021/07/22 13:02:08;;;;;;;11.63;10.63;;;45.60;26.60;;;;;;6192556;23;20402;-84
2021/07/22 13:04:35;;;;;;;11.10;10.20;;;45.20;26.20;;;;;;6192036;23;20513;-83
2021/07/22 13:07:02;;;;;;;10.07;9.00;;;44.60;27.10;;;;;;6186346;23;20402;-83
2021/07/22 13:09:28;;;;;;;11.10;10.10;;;44.20;27.50;;;;;;6204526;23;20410;-83
2021/07/22 13:11:55;;;;;;;10.00;9.20;;;43.40;27.60;;;;;;6201222;23;21037;-84
2021/07/22 13:14:24;;;;;;;8.97;8.27;;;42.70;28.80;;;;;;6189071;23;20410;-84
2021/07/22 13:16:51;;;;;;;9.23;8.53;;;43.20;28.70;;;;;;6205987;23;20409;-84
2021/07/22 13:19:18;;;;;;;10.13;9.33;;;43.60;28.70;;;;;;6213030;23;20416;-84
2021/07/22 13:21:45;;;;;;;10.60;9.77;;;43.30;28.90;;;;;;6211589;23;20425;-84
2021/07/22 13:24:11;;;;;;;10.50;9.33;;;43.00;28.50;;;;;;6210673;23;20390;-84
2021/07/22 13:26:39;;;;;;;10.27;9.47;;;42.30;29.10;;;;;;6208646;23;20398;-84
2021/07/22 13:29:06;;;;;;;10.23;8.63;;;41.50;29.70;;;;;;6207361;23;20410;-84
2021/07/22 13:31:34;;;;;;;11.10;10.20;;;40.60;30.40;;;;;;6211642;23;20393;-84
2021/07/22 13:34:01;;;;;;;9.67;8.97;;;41.10;30.10;;;;;;6211258;23;20398;-85
2021/07/22 13:36:30;;;;;;;9.80;8.97;;;41.20;30.00;;;;;;6206422;23;20522;-86
2021/07/22 13:39:00;;;;;;;10.87;9.83;;;41.20;29.90;;;;;;6203288;23;20391;-85
2021/07/22 13:41:27;;;;;;;11.23;10.30;;;41.50;30.10;;;;;;6191730;23;20393;-84
2021/07/22 13:43:54;;;;;;;10.20;9.30;;;41.50;30.00;;;;;;6192396;23;20402;-84
2021/07/22 13:46:21;;;;;;;9.40;8.80;;;41.40;29.90;;;;;;6187771;23;20760;-85
2021/07/22 13:48:48;;;;;;;9.80;8.90;;;41.00;30.50;;;;;;6188169;23;20410;-85
2021/07/22 13:51:15;;;;;;;10.70;9.77;;;41.30;30.50;;;;;;6191227;23;20410;-85
2021/07/22 13:53:42;;;;;;;8.63;7.80;;;41.30;30.10;;;;;;6197701;23;20402;-85
2021/07/22 13:56:09;;;;;;;10.07;9.10;;;41.90;30.50;;;;;;6190996;23;20418;-85
2021/07/22 13:58:35;;;;;;;9.27;8.57;;;41.30;30.30;;;;;;6186913;23;20446;-85
2021/07/22 14:01:03;;;;;;;10.40;9.40;;;40.80;30.70;;;;;;6186568;23;20437;-85
2021/07/22 14:03:30;;;;;;;11.37;10.47;;;40.60;30.80;;;;;;6186093;23;20923;-85
2021/07/22 14:05:58;;;;;;;10.53;9.33;;;40.10;31.30;;;;;;6187970;23;20424;-83
2021/07/22 14:08:24;;;;;;;12.13;9.47;;;39.80;30.80;;;;;;6186896;23;20418;-83
2021/07/22 14:10:51;;;;;;;11.03;9.70;;;38.70;32.10;;;;;;6187723;23;20402;-85
2021/07/22 14:13:18;;;;;;;9.37;8.30;;;38.50;32.60;;;;;;6186600;23;20913;-83
2021/07/22 14:15:44;;;;;;;10.87;9.97;;;39.00;32.10;;;;;;6184807;23;20756;-83
2021/07/22 14:18:12;;;;;;;10.30;9.10;;;39.30;32.40;;;;;;6185748;23;20460;-84
2021/07/22 14:20:38;;;;;;;13.10;9.00;;;39.40;32.60;;;;;;6186080;23;20440;-84
2021/07/22 14:23:06;;;;;;;10.83;9.73;;;39.40;32.60;;;;;;6185720;23;20431;-84